Tiempo atmosférico en la estación meteorológica de Huesca Aeropuerto, Huesca (541 m.)



Fecha
DESCASC
Temp. máxima en grados centígrados (hora)
DESCASC
Temp. mínima en grados centígrados (hora)
DESCASC
Temp. media en grados centígrados
DESCASC
Racha de viento máxima en m/sg (hora)
DESCASC
Velocidad máxima media en intervalos de 10 minutos(hora)
DESCASC
Precipitaciones diarias en mm
DESCASC
Precipitaciones de 00:00 a 06:00 en mm
DESCASC
Precipitaciones de 06:00 a 12:00 en mm
DESCASC
Precipitaciones de 12:00 a 18:00 en mm
DESCASC
Precipitaciones de 18:00 a 24:00 en mm
DESCASC
25-04-2019 15.7 (13:30) 7 (23:59) 11.3 9.72 (17:10) 5.28 (05:10) 9 7.4 1.4 0.2 0
24-04-2019 10.9 (22:10) 5.3 (04:00) 8.1 11.94 (22:10) 8.33 (22:10) 2.8 0 0 1.6 1.2
23-04-2019 17.8 (14:10) 7.9 (23:59) 12.8 10 (21:10) 5 (14:50) 15.4 0.2 0 13.2 2
22-04-2019 16.2 (15:10) 8.6 (00:00) 12.4 6.39 (14:50) 3.33 (08:50) 0.4 0 0.2 0 0.2
21-04-2019 13.9 (17:00) 7.4 (00:00) 10.6 6.11 (00:30) 3.33 (04:10) 3.2 3.2 0 0 0
20-04-2019 21.2 (16:00) 9.5 (00:00) 15.4 10.56 (16:10) 5.83 (17:20) 0.8 0 0 0 0.8
19-04-2019 20.4 (17:00) 12.3 (00:00) 16.3 14.44 (16:40) 8.61 (01:40) 0 0 0 0 0
18-04-2019 18.1 (14:10) 7.9 (00:00) 13 15.56 (22:20) 9.17 (17:20) 0.2 0 0.2 0 0
17-04-2019 20 (15:40) 7.9 (00:00) 14 13.33 (17:50) 8.06 (17:50) 0 0 0 0 0
16-04-2019 19.1 (16:40) 6.4 (00:00) 12.8 6.67 (23:40) 4.17 (22:30) 0 0 0 0 0
15-04-2019 18.5 (16:00) 8.5 (00:00) 13.5 13.33 (20:50) 7.78 (14:50) 3 0 0 0 3
14-04-2019 22.8 (16:50) 9 (00:00) 15.9 12.22 (13:10) 4.72 (14:10) 0 0 0 0 0
13-04-2019 21.1 (17:10) 3.2 (00:00) 12.2 8.61 (16:40) 4.17 (17:40) 0 0 0 0 0
12-04-2019 19.2 (16:10) 4.1 (00:00) 11.7 10.83 (17:00) 4.44 (15:50) 0 0 0 0 0
11-04-2019 17.9 (16:10) 3.8 (00:00) 10.8 10.83 (15:40) 4.44 (18:20) 0 0 0 0 0
10-04-2019 17.5 (15:10) 3.8 (00:00) 10.6 8.06 (15:30) 3.33 (03:50) 0 0 0 0 0
09-04-2019 17.2 (16:40) 6.5 (00:00) 11.9 10 (14:40) 3.61 (15:20) 0 0 0 0 0
08-04-2019 17 (17:10) 5.7 (00:00) 11.3 6.39 (17:40) 3.06 (17:40) 0.2 0 0.2 0 0
07-04-2019 15.2 (16:40) 3.9 (00:00) 9.5 10 (12:20) 3.61 (11:40) 0 0 0 0 0
06-04-2019 12.1 (16:10) 3.5 (00:00) 7.8 8.89 (03:20) 4.17 (03:20) 8.4 7.4 0.4 0.2 0.4
05-04-2019 11.2 (15:20) 4.6 (00:00) 7.9 9.72 (05:40) 5.83 (05:40) 6.8 0 1.2 2.4 3.2
04-04-2019 12.7 (16:20) -0.5 (-00:0) 6.1 11.67 (10:40) 4.44 (17:20) 0 0 0 0 0
03-04-2019 11.8 (17:00) 2.9 (00:00) 7.4 10.56 (19:30) 3.89 (18:10) 0 0 0 0 0
02-04-2019 18.6 (16:20) 8.3 (00:00) 13.5 9.44 (18:20) 3.89 (13:40) 0 0 0 0 0
01-04-2019 14 (17:40) 7.4 (00:00) 10.7 3.89 (15:40) 2.22 (16:10) 3.6 0.4 1.8 1.4 0
31-03-2019 13 (16:30) 3.7 (00:00) 8.4 5.83 (12:50) 3.61 (12:50) 0 0 0 0 0
30-03-2019 17 (16:20) 3.1 (00:00) 10 6.39 (12:50) 3.89 (09:20) 0 0 0 0 0
29-03-2019 17.5 (15:10) 4.8 (00:00) 11.2 8.33 (11:00) 5.28 (10:10) 0 0 0 0 0
28-03-2019 17 (16:10) 3.4 (00:00) 10.2 7.22 (02:00) 4.72 (01:50) 0 0 0 0 0
27-03-2019 18.6 (16:40) 4 (00:00) 11.3 6.94 (23:59) 4.17 (23:50) 0 0 0 0 0

Gráficas

Temp. máximas Temp. mínimas Temp. medias Precipitaciones Rachas de viento máximas Velocidades máximas media en intervalos de 10 minutos

Datos horarios

Fecha y hora oficial Temperatura (ºC) Velocidad del viento (km/h) Dirección del viento Racha (km/h) Dirección de racha Precipitación (mm) Presión (hPa) Tendencia (hPa) Humedad (%)
2019-04-25 23:00:00 8.5 2 Este 10 Nordeste 0 949.5 2.7 74
2019-04-25 22:00:00 9.1 2 Sudoeste 11 Sudoeste 0 948.4 1.6 69
2019-04-25 21:00:00 10.4 3 Oeste 14 Oeste 0 947.6 1.4 65
2019-04-25 20:00:00 11.8 4 Oeste 17 Noroeste 0 946.8 0.7 58
2019-04-25 19:00:00 12.2 6 Oeste 24 Sudoeste 0 946.8 1.1 61
2019-04-25 18:00:00 12.3 14 Oeste 35 Oeste 0 946.2 1.1 59
2019-04-25 17:00:00 12.8 10 Oeste 25 Sudoeste 0 946.1 1.6 61
2019-04-25 16:00:00 11.7 7 Noroeste 25 Noroeste 0 945.7 0.6 66
2019-04-25 15:00:00 11.3 9 Norte 31 Noroeste 0.2 945.1 -0.5 76
2019-04-25 14:00:00 15.1 13 Sur 35 Sur 0 944.5 -1 46
2019-04-25 13:00:00 14.8 13 Sudeste 27 Sur 0 945.1 0.1 58
2019-04-25 12:00:00 14 11 Sur 23 Sur 0 945.6 1.4 61
2019-04-25 11:00:00 12.4 4 Sudoeste 12 Oeste 0 945.5 2.6 66
2019-04-25 10:00:00 11.7 5 Oeste 19 Oeste 0 945 3.3 78
2019-04-25 09:00:00 9.6 5 Oeste 11 Noroeste 0 944.2 3.1 85
2019-04-25 08:00:00 8.8 5 Oeste 16 Oeste 0 942.9 2.9 92
2019-04-25 07:00:00 9.5 6 Noroeste 20 Sudoeste 1.4 941.7 1.4 93
2019-04-25 06:00:00 10.2 14 Sur 32 Sudeste 2.4 941.1 0 96
2019-04-25 05:00:00 9.7 18 Sudeste 26 Sudeste 1 940 -2 98
2019-04-25 04:00:00 9.2 17 Este 30 Este 0.2 940.3 -2.2 96
2019-04-25 03:00:00 8.9 17 Este 30 Este 0.6 941.1 -1.2 96
2019-04-25 02:00:00 8.6 16 Este 26 Este 1.4 942 0.8 97
2019-04-25 01:00:00 8.8 13 Este 22 Este 1.8 942.5 1.5 96
2019-04-25 00:00:00 9.2 17 Este 35 Sudeste 1.2 942.3 1.5 91
2019-04-24 23:00:00 10.6 24 Sudeste 43 Sudeste 0 941.2 0.3 80
2019-04-24 22:00:00 10.6 23 Sudeste 36 Este 0 941 -0.5 81
2019-04-24 21:00:00 10.1 23 Este 37 Este 0 940.8 -1.1 76
2019-04-24 20:00:00 9.9 22 Este 34 Este 0 940.9 -1.1 75
2019-04-24 19:00:00 10.6 19 Este 36 Este 0 941.5 -1.3 73
2019-04-24 18:00:00 10 20 Este 40 Este 0 941.9 -1.3 72
2019-04-24 17:00:00 8.4 23 Este 39 Este 0.2 942 -1.4 85
2019-04-24 16:00:00 8.3 24 Este 37 Este 0 942.8 -- 82
2019-04-24 15:00:00 8.4 17 Este 26 Este 0.2 943.2 -- 83
2019-04-24 14:00:00 7.9 12 Sur -- -- -- 943.4 -- 80
2019-04-24 13:00:00 -- -- -- -- -- -- -- -- --
2019-04-24 12:00:00 -- -- -- -- -- -- -- -- --
2019-04-24 11:00:00 -- -- -- -- -- -- -- -- --
2019-04-24 10:00:00 8.6 9 Oeste 18 Oeste 0 941.2 2.4 70
2019-04-24 09:00:00 8.1 7 Sur 15 Sur 0 940.5 2.4 80
2019-04-24 08:00:00 6.6 2 Sur 8 Sur 0 939.5 2.1 92
2019-04-24 07:00:00 6.2 3 Oeste 10 Oeste 0 938.8 1.6 89
2019-04-24 06:00:00 6.1 3 Sudoeste 9 Oeste 0 938.1 0.8 88
2019-04-24 05:00:00 6.2 6 Oeste 14 Oeste 0 937.4 0.2 86
2019-04-24 04:00:00 5.3 4 Sur 9 Sudoeste 0 937.2 0.3 88
2019-04-24 03:00:00 6 0 Calma 13 Sudoeste 0 937.3 0.9 89
2019-04-24 02:00:00 6.7 5 Sudoeste 13 Sur 0 937.2 1 84
2019-04-24 01:00:00 7.3 5 Sudeste 12 Sur 0 936.9 0.6 90
2019-04-24 00:00:00 7.9 7 Nordeste 13 Este 0 936.4 1.7 89
2019-04-23 23:00:00 8.3 7 Este 14 Este 0.2 936.2 3 91
2019-04-23 22:00:00 8.8 3 Sudeste 36 Sur 0.8 936.3 3.9 89
2019-04-23 21:00:00 9.8 8 Sudeste 18 Sudoeste 0.2 934.7 1.3 93
2019-04-23 20:00:00 10.4 10 Este 24 Nordeste 0 933.2 0.3 92
2019-04-23 19:00:00 10.6 10 Nordeste 21 Nordeste 0.8 932.4 -0.9 92
2019-04-23 18:00:00 11 5 Oeste 21 Oeste 0.2 933.4 0.7 86
2019-04-23 17:00:00 11 9 Nordeste 27 Sur 12 932.9 -0.6 93
2019-04-23 16:00:00 13.3 9 Oeste 30 Este 1 933.3 -0.4 76
2019-04-23 15:00:00 17.1 16 Este 30 Sudeste 0 932.7 -1.3 63
2019-04-23 14:00:00 17.1 17 Sudeste 28 Sudeste 0 933.5 -0.4 65
2019-04-23 13:00:00 16.3 16 Este 28 Sudeste 0 933.7 0.1 66
2019-04-23 12:00:00 14.6 13 Sudeste 24 Sudeste 0 934 0.8 72
2019-04-23 11:00:00 12.5 9 Sudeste 18 Sudeste 0 933.9 0.8 83
2019-04-23 10:00:00 12 9 Este 13 Este 0 933.6 0.8 87
2019-04-23 09:00:00 11.2 7 Este 13 Este 0 933.2 0.1 90
2019-04-23 08:00:00 10.2 7 Este 12 Este 0 933.1 -0.5 91
2019-04-23 07:00:00 10 6 Este 14 Este 0 932.8 -1 91
2019-04-23 06:00:00 10 6 Este 14 Nordeste 0 933.1 -1.3 92
2019-04-23 05:00:00 10.1 5 Nordeste 8 Nordeste 0 933.6 -1.5 92
2019-04-23 04:00:00 10.4 4 Este 10 Nordeste 0 933.8 -1.6 88
2019-04-23 03:00:00 10.1 7 Este 10 Este 0 934.4 -1.6 92
2019-04-23 02:00:00 10.7 5 Nordeste 9 Este 0 935.1 -1.2 87
2019-04-23 01:00:00 10.8 5 Nordeste 8 Nordeste 0.2 935.4 -0.7 84
2019-04-23 00:00:00 11.3 0 Calma 8 Sur 0 936 0.5 85
2019-04-22 23:00:00 11.6 3 Sur 6 Noroeste 0 936.3 0.8 79
2019-04-22 22:00:00 12 2 Norte 7 Noroeste 0 936.1 0.7 75
2019-04-22 21:00:00 13.1 2 Oeste 7 Noroeste 0.2 935.5 0.2 73
2019-04-22 20:00:00 14.2 3 Oeste 10 Oeste 0 935.5 -0.2 64
2019-04-22 19:00:00 14.6 6 Sudoeste 18 Oeste 0 935.4 -0.9 62
2019-04-22 18:00:00 15.5 9 Oeste 18 Oeste 0 935.3 -1.8 53
2019-04-22 17:00:00 16 4 Oeste 18 Noroeste 0 935.7 -1.9 53
2019-04-22 16:00:00 15.7 7 Oeste 21 Oeste 0 936.3 -2.3 57
2019-04-22 15:00:00 15.9 8 Oeste 23 Sudoeste 0 937.1 -1.9 57
2019-04-22 14:00:00 14.3 9 Oeste 18 Oeste 0 937.6 -1.9 64
2019-04-22 13:00:00 13.4 8 Oeste 14 Oeste 0 938.6 -1.1 67
2019-04-22 12:00:00 12 4 Oeste 12 Norte 0 939 -0.5 74
2019-04-22 11:00:00 9 7 Noroeste 15 Oeste 0.2 939.5 0.4 88
2019-04-22 10:00:00 9.1 3 Oeste 15 Sudeste 0 939.7 1 86
2019-04-22 09:00:00 9 11 Sudeste 15 Sudeste 0 939.5 0.6 80
2019-04-22 08:00:00 8.7 3 Sur 7 Este 0 939.1 -0.8 77
2019-04-22 07:00:00 9.5 4 Norte 9 Noroeste 0 938.7 -2.5 72
2019-04-22 06:00:00 10 5 Noroeste 13 Oeste 0 938.9 -3.6 68
2019-04-22 05:00:00 10 5 Noroeste 14 Noroeste 0 939.9 -3.5 69
2019-04-22 04:00:00 9.9 5 Noroeste 10 Noroeste 0 941.2 -3 71
2019-04-22 03:00:00 10 4 Noroeste 8 Noroeste 0 942.5 -2.4 72
2019-04-22 02:00:00 10.2 2 Norte 8 Nordeste 0 943.4 -1.9 74
2019-04-22 01:00:00 11.1 4 Nordeste 8 Nordeste 0 944.2 -0.9 72
2019-04-22 00:00:00 11.1 5 Nordeste 8 Este 0 944.9 -0.1 74
2019-04-21 23:00:00 11.5 2 Nordeste 8 Noroeste 0 945.3 0.2 71
2019-04-21 22:00:00 11.9 4 Noroeste 9 Oeste 0 945.1 -0.6 70
2019-04-21 21:00:00 12.2 4 Oeste 10 Noroeste 0 945 -1.3 69
2019-04-21 20:00:00 12.7 3 Noroeste 7 Noroeste 0 945.1 -1.5 67
2019-04-21 19:00:00 13.1 2 Noroeste 6 Sudoeste 0 945.7 -1.5 62
2019-04-21 18:00:00 13.4 3 Oeste 8 Sudoeste 0 946.3 -1.3 61
2019-04-21 17:00:00 13.8 3 Noroeste 11 Noroeste 0 946.6 -1.4 59
2019-04-21 16:00:00 13.7 4 Oeste 10 Oeste 0 947.2 -1.3 61
2019-04-21 15:00:00 13.5 3 Norte 13 Oeste 0 947.6 -1.9 66
2019-04-21 14:00:00 13.7 7 Noroeste 14 Noroeste 0 948 -1.9 63
2019-04-21 13:00:00 12.4 7 Noroeste 14 Norte 0 948.5 -1.3 68
2019-04-21 12:00:00 11.5 9 Sudeste 14 Sudeste 0 949.5 -0.4 71
2019-04-21 11:00:00 11.3 8 Este 20 Este 0 949.9 -0.1 72
2019-04-21 10:00:00 10.9 11 Este 21 Este 0 949.8 -0.1 73
2019-04-21 09:00:00 10.2 6 Este 15 Este 0 949.9 -0.7 78
2019-04-21 08:00:00 9.3 6 Nordeste 13 Este 0 950 -1.7 81
2019-04-21 07:00:00 9.1 9 Nordeste 18 Nordeste 0 949.9 -2.6 81
2019-04-21 06:00:00 8.8 10 Nordeste 17 Nordeste 0 950.6 -3.3 86
2019-04-21 05:00:00 8.2 6 Norte 20 Nordeste 0 951.7 -3.1 93
2019-04-21 04:00:00 7.7 8 Norte 19 Nordeste 0.8 952.5 -2.9 97
2019-04-21 03:00:00 7.5 5 Nordeste 9 Sudeste 1.4 953.9 -1.9 96
2019-04-21 02:00:00 7.9 8 Sudeste 19 Sudeste 0.6 954.8 -0.9 93
2019-04-21 01:00:00 8.5 8 Sur 22 Sur 0.4 955.4 0 90
2019-04-21 00:00:00 9.5 9 Sur 20 Sur 0.4 955.8 1.3 83
2019-04-20 23:00:00 10.4 7 Sur 15 Sur 0 955.7 1.8 82
2019-04-20 22:00:00 10.8 8 Sur 23 Sudeste 0.2 955.4 1.9 78
2019-04-20 21:00:00 12.5 7 Sudeste 25 Sudeste 0.2 954.5 1.1 67
2019-04-20 20:00:00 13.9 13 Sudeste 27 Sur 0 953.9 0.4 54
2019-04-20 19:00:00 15.4 16 Sudeste 32 Sudeste 0 953.5 -0.4 47
2019-04-20 18:00:00 16.8 18 Sudeste 34 Sur 0 953.4 -1.1 39
2019-04-20 17:00:00 18.4 20 Sudeste 38 Sudeste 0 953.5 -1.3 34
2019-04-20 16:00:00 21.1 14 Sudeste 32 Sudeste 0 953.9 -1.4 33
2019-04-20 15:00:00 19.4 14 Sur 27 Sur 0 954.5 -1.2 34
2019-04-20 14:00:00 20.1 8 Sudoeste 18 Sudoeste 0 954.8 -1.4 34
2019-04-20 13:00:00 19.6 8 Oeste 20 Oeste 0 955.3 -1.2 35
2019-04-20 12:00:00 18.3 6 Oeste 16 Sudoeste 0 955.7 -0.9 37
2019-04-20 11:00:00 16.8 6 Oeste 14 Noroeste 0 956.2 -0.1 39
2019-04-20 10:00:00 14.6 4 Noroeste 13 Norte 0 956.5 0.2 47
2019-04-20 09:00:00 12.4 4 Noroeste 8 Noroeste 0 956.6 -0.1 47
2019-04-20 08:00:00 10.8 4 Noroeste 9 Este 0 956.3 -1 45
2019-04-20 07:00:00 9.9 3 Norte 10 Este 0 956.3 -1.1 50
2019-04-20 06:00:00 10.5 7 Este 11 Este 0 956.7 -0.8 47
2019-04-20 05:00:00 10.9 2 Sudoeste 7 Norte 0 957.3 -0.2 47
2019-04-20 04:00:00 12 4 Noroeste 6 Noroeste 0 957.4 -0.5 45
2019-04-20 03:00:00 12.2 3 Oeste 6 Noroeste 0 957.5 -0.6 43
2019-04-20 02:00:00 12.2 5 Noroeste 13 Noroeste 0 957.5 -0.7 45
2019-04-20 01:00:00 12.1 6 Este 16 Este 0 957.9 0 46
2019-04-20 00:00:00 12.4 7 Este 13 Este 0 958.1 0.8 45
2019-04-19 23:00:00 13.5 9 Sudeste 18 Este 0 958.2 1.8 41
2019-04-19 22:00:00 13.7 11 Sudeste 21 Sudeste 0 957.9 2 41
2019-04-19 21:00:00 15.3 13 Sudeste 27 Sudeste 0 957.3 1.8 37
2019-04-19 20:00:00 16.9 20 Sudeste 35 Sudeste 0 956.4 1.3 35
2019-04-19 19:00:00 17.9 20 Sudeste 44 Sudeste 0 955.9 0.6 37
2019-04-19 18:00:00 19.5 24 Sudeste 45 Sudeste 0 955.5 0.2 34
2019-04-19 17:00:00 20.1 30 Sudeste 52 Sudeste 0 955.1 -0.3 30
2019-04-19 16:00:00 19.5 25 Sudeste 48 Sudeste 0 955.3 0.1 35
2019-04-19 15:00:00 19.4 25 Sudeste 45 Sudeste 0 955.3 0.2 43
2019-04-19 14:00:00 18.3 27 Sudeste 42 Este 0 955.4 1 44
2019-04-19 13:00:00 17.4 22 Sudeste 39 Sudeste 0 955.2 1.1 46
2019-04-19 12:00:00 17.2 22 Sudeste 38 Sudeste 0 955.1 1.5 41
2019-04-19 11:00:00 15.9 17 Este 28 Sudeste 0 954.4 1.4 44
2019-04-19 10:00:00 14.1 10 Sudeste 22 Este 0 954.1 1.6 49
2019-04-19 09:00:00 12.9 13 Este 24 Este 0 953.6 2.1 50
2019-04-19 08:00:00 12.4 13 Este 24 Este 0 953 1.7 49
2019-04-19 07:00:00 12.5 12 Este 34 Este 0 952.5 0.7 48
2019-04-19 06:00:00 13.2 25 Este 43 Este 0 951.5 -0.8 47
2019-04-19 05:00:00 12.7 23 Sudeste 39 Este 0 951.3 -1.2 50
2019-04-19 04:00:00 12.5 22 Este 34 Este 0 951.8 -1 49
2019-04-19 03:00:00 12.9 21 Este 46 Este 0 952.3 0.9 48
2019-04-19 02:00:00 13.2 29 Este 48 Sudeste 0 952.5 1.7 47
2019-04-19 01:00:00 13 23 Sudeste 42 Sudeste 0 952.8 3.1 47
2019-04-19 00:00:00 13.4 25 Sudeste 45 Sudeste 0 951.4 2.3 42
2019-04-18 23:00:00 14.1 28 Sudeste 56 Este 0 950.8 2.2 42
2019-04-18 22:00:00 14.1 30 Sudeste 48 Sudeste 0 949.7 0.9 50
2019-04-18 21:00:00 14 24 Sudeste 40 Sudeste 0 949.1 1 59
2019-04-18 20:00:00 14.6 23 Sudeste 39 Sudeste 0 948.6 0.3 56
2019-04-18 19:00:00 15.3 18 Sudeste 44 Este 0 948.8 -0.4 52
2019-04-18 18:00:00 15.5 30 Sudeste 50 Sudeste 0 948.1 -1.3 49
2019-04-18 17:00:00 15.7 28 Sudeste 46 Sudeste 0 948.3 -1.5 49
2019-04-18 16:00:00 15.7 23 Este 37 Este 0 949.2 -1 55
2019-04-18 15:00:00 17 25 Sudeste 43 Sudeste 0 949.4 -0.3 48
2019-04-18 14:00:00 17.6 22 Sudeste 42 Sudeste 0 949.8 -1.5 56
2019-04-18 13:00:00 16.5 21 Sudeste 42 Este 0 950.2 -2.4 60
2019-04-18 12:00:00 11.9 21 Este 37 Este 0.2 949.7 -2.1 76
2019-04-18 11:00:00 10.4 17 Este 29 Este 0 951.3 0.1 83
2019-04-18 10:00:00 12.2 19 Sudeste 31 Sudeste 0 952.6 1.7 75
2019-04-18 09:00:00 9.4 11 Sudeste 17 Sudeste 0 951.8 0.6 84
2019-04-18 08:00:00 7.9 11 Sudeste 23 Sudeste 0 951.2 -0.5 88
2019-04-18 07:00:00 8.4 17 Este 24 Este 0 950.9 -0.5 86
2019-04-18 06:00:00 8.6 17 Este 30 Este 0 951.2 -0.4 84
2019-04-18 05:00:00 8.7 16 Este 29 Sudeste 0 951.7 0.4 84
2019-04-18 04:00:00 9 20 Sudeste 33 Sudeste 0 951.4 -1.4 82
2019-04-18 03:00:00 9.1 13 Sudeste 28 Este 0 951.6 0.5 82
2019-04-18 02:00:00 9.8 15 Este 31 Este 0 951.3 0.4 78
2019-04-18 01:00:00 11.6 12 Sudeste 32 Este 0 952.8 2.4 70
2019-04-18 00:00:00 12 21 Este 42 Sudeste 0 951.1 1.5 65
2019-04-17 23:00:00 12.2 23 Este 38 Este 0 950.9 1.8 67
2019-04-17 22:00:00 12.6 21 Este 37 Este 0 950.4 1.5 63
2019-04-17 21:00:00 13.6 21 Sudeste 35 Sudeste 0 949.6 0.9 64
2019-04-17 20:00:00 15.5 23 Sudeste 37 Sudeste 0 949.1 -0.5 59
2019-04-17 19:00:00 17.4 25 Sudeste 43 Sudeste 0 948.9 -1 53
2019-04-17 18:00:00 18.5 25 Sudeste 48 Sudeste 0 948.7 -1.8 47
2019-04-17 17:00:00 18.9 25 Sudeste 41 Sudeste 0 949.6 -1.6 48
2019-04-17 16:00:00 19.9 26 Sudeste 44 Sudeste 0 949.9 -2.1 46
2019-04-17 15:00:00 18.8 26 Sudeste 42 Sudeste 0 950.5 -1.8 49
2019-04-17 14:00:00 16.8 23 Sudeste 41 Sudeste 0 951.2 -1.3 55
2019-04-17 13:00:00 15.8 23 Este 37 Sudeste 0 952 -0.7 58
2019-04-17 12:00:00 15.1 20 Sudeste 32 Sudeste 0 952.3 -0.3 58
2019-04-17 11:00:00 14.8 19 Sudeste 34 Este 0 952.5 0.4 57
2019-04-17 10:00:00 13.7 19 Sudeste 30 Este 0 952.7 -0.1 61
2019-04-17 09:00:00 10.8 15 Este 24 Este 0 952.6 -0.2 71
2019-04-17 08:00:00 8.9 14 Este 25 Este 0 952.1 -1.4 75
2019-04-17 07:00:00 8.6 9 Este 22 Este 0 952.8 -1.3 74
2019-04-17 06:00:00 8.2 12 Este 24 Este 0 952.8 -1.8 78
2019-04-17 05:00:00 8.4 14 Este 26 Este 0 953.5 -0.9 78
2019-04-17 04:00:00 8.2 10 Este 17 Este 0 954.1 -0.2 78
2019-04-17 03:00:00 8.1 11 Este 18 Este 0 954.6 0.1 77
2019-04-17 02:00:00 8.3 9 Este 22 Este 0 954.4 0.2 69
2019-04-17 01:00:00 9.2 16 Este 25 Sudeste 0 954.3 0.6 65
2019-04-17 00:00:00 9.5 12 Este 24 Este 0 954.5 1.4 69
2019-04-16 23:00:00 10.6 13 Este 23 Sudeste 0 954.2 1.5 72
2019-04-16 22:00:00 12.8 14 Sudeste 20 Sudeste 0 953.7 1.1 68
2019-04-16 21:00:00 14.2 10 Sudeste 17 Sudeste 0 953.1 0.2 64
2019-04-16 20:00:00 16.8 11 Sudeste 18 Sudeste 0 952.7 -0.3 53
2019-04-16 19:00:00 18.7 8 Sudeste 19 Sudeste 0 952.6 -0.8 44
2019-04-16 18:00:00 18.7 5 Sur 14 Sudeste 0 952.9 -0.8 44
2019-04-16 17:00:00 18 7 Este 18 Sudeste 0 953 -1 48
2019-04-16 16:00:00 18.7 9 Este 17 Este 0 953.4 -1.1 48
2019-04-16 15:00:00 18.1 8 Sudeste 18 Sudeste 0 953.7 -0.8 51
2019-04-16 14:00:00 16.2 6 Norte 14 Norte 0 954 0 56
2019-04-16 13:00:00 15.6 6 Oeste 14 Sur 0 954.5 0.4 56
2019-04-16 12:00:00 13.6 5 Sudoeste 12 Sur 0 954.5 1 72
2019-04-16 11:00:00 11.9 3 Oeste 11 Oeste 0 954 1.2 79
2019-04-16 10:00:00 9.7 5 Sudoeste 11 Oeste 0 954.1 1.7 87
2019-04-16 09:00:00 8.4 3 Sudoeste 7 Oeste 0 953.5 1.4 93
2019-04-16 08:00:00 7.4 3 Oeste 13 Sudoeste 0 952.8 0.8 95
2019-04-16 07:00:00 6.9 5 Oeste 13 Oeste 0 952.4 0.6 87
2019-04-16 06:00:00 7.9 2 Sudoeste 9 Oeste 0 952.1 0.2 88
2019-04-16 05:00:00 8.7 3 Oeste 9 Oeste 0 952 -0.3 80
2019-04-16 04:00:00 9.3 3 Oeste 6 Oeste 0 951.8 0.5 85
2019-04-16 03:00:00 9.3 3 Norte 16 Noroeste 0 951.9 1 87
2019-04-16 02:00:00 8.8 6 Noroeste 12 Noroeste 0 952.3 1.7 86
2019-04-16 01:00:00 8.4 8 Este 24 Este 0 951.3 3 86
2019-04-16 00:00:00 9.1 16 Sudeste 30 Este 0 950.9 3.7 83
2019-04-15 23:00:00 10 14 Nordeste 37 Sudeste 0.2 950.6 3.2 74
2019-04-15 22:00:00 9.9 25 Sudeste 40 Sudeste 0.2 948.3 0.8 80
2019-04-15 21:00:00 11 24 Este 48 Este 2.6 947.2 -0.5 79
2019-04-15 20:00:00 14.1 24 Sudeste 40 Sudeste 0 947.4 -0.1 57
2019-04-15 19:00:00 15.9 28 Sudeste 41 Sudeste 0 947.5 -0.9 53
2019-04-15 18:00:00 17.5 27 Sudeste 42 Sudeste 0 947.7 -1.1 52
2019-04-15 17:00:00 17.3 27 Sudeste 41 Sudeste 0 947.5 -2.1 55
2019-04-15 16:00:00 18.4 25 Sudeste 39 Sudeste 0 948.4 -1.7 49
2019-04-15 15:00:00 17.2 25 Este 41 Sudeste 0 948.8 -1.7 49
2019-04-15 14:00:00 17 24 Sudeste 38 Este 0 949.6 -1.4 50
2019-04-15 13:00:00 16.2 23 Este 35 Este 0 950.1 -1.2 49
2019-04-15 12:00:00 15.8 22 Sudeste 33 Este 0 950.5 -0.6 53
2019-04-15 11:00:00 14.8 19 Sudeste 30 Este 0 951 0.4 59
2019-04-15 10:00:00 13.2 18 Sudeste 31 Este 0 951.3 0.5 70
2019-04-15 09:00:00 11.2 21 Este 34 Este 0 951.1 1 79
2019-04-15 08:00:00 8.8 18 Este 26 Este 0 950.6 0.1 86
2019-04-15 07:00:00 9 10 Este 27 Este 0 950.8 0.5 86
2019-04-15 06:00:00 9.7 19 Este 26 Este 0 950.1 -0.3 86
2019-04-15 05:00:00 10.7 16 Este 26 Este 0 950.5 0.3 82
2019-04-15 04:00:00 10.6 15 Este 22 Este 0 950.3 0 80
2019-04-15 03:00:00 11.7 10 Este 19 Este 0 950.4 0.5 72
2019-04-15 02:00:00 13.2 4 Sudoeste 12 Sudoeste 0 950.2 0.4 66
2019-04-15 01:00:00 14 2 Norte 21 Noroeste 0 950.3 0.6 60
2019-04-15 00:00:00 15.6 13 Norte 24 Noroeste 0 949.9 0.7 56
2019-04-14 23:00:00 14.5 9 Noroeste 21 Norte 0 949.8 1.1 63
2019-04-14 22:00:00 15.2 7 Noroeste 20 Noroeste 0 949.7 1.3 62
2019-04-14 21:00:00 16.7 8 Noroeste 23 Norte 0 949.2 0.8 56
2019-04-14 20:00:00 18.6 9 Noroeste 36 Noroeste 0 948.7 0.4 51
2019-04-14 19:00:00 20.4 14 Noroeste 41 Norte 0 948.4 -0.1 45
2019-04-14 18:00:00 21.8 14 Noroeste 43 Norte 0 948.4 -0.3 40
2019-04-14 17:00:00 22.7 15 Noroeste 41 Noroeste 0 948.3 -0.4 39
2019-04-14 16:00:00 22.6 16 Noroeste 36 Noroeste 0 948.5 -0.8 39
2019-04-14 15:00:00 22.3 15 Oeste 39 Oeste 0 948.7 -0.9 39
2019-04-14 14:00:00 21.6 15 Oeste 44 Sudoeste 0 948.7 -0.8 41
2019-04-14 13:00:00 20.5 14 Oeste 40 Oeste 0 949.3 -0.3 44
2019-04-14 12:00:00 18.7 10 Oeste 31 Oeste 0 949.6 0 42
2019-04-14 11:00:00 17.6 9 Oeste 27 Oeste 0 949.5 0.2 41
2019-04-14 10:00:00 14.5 5 Oeste 15 Oeste 0 949.6 0.5 44
2019-04-14 09:00:00 11.7 5 Oeste 14 Oeste 0 949.6 0.4 44
2019-04-14 08:00:00 9.2 3 Oeste 13 Oeste 0 949.3 -0.4 44
2019-04-14 07:00:00 9 4 Oeste 11 Noroeste 0 949.1 -0.9 42
2019-04-14 06:00:00 9.4 5 Noroeste 12 Oeste 0 949.2 -1 40
2019-04-14 05:00:00 9.8 5 Noroeste 10 Oeste 0 949.7 -0.8 37
2019-04-14 04:00:00 9.6 5 Noroeste 11 Oeste 0 950 -0.7 35
2019-04-14 03:00:00 12 5 Noroeste 16 Noroeste 0 950.2 -0.9 29
2019-04-14 02:00:00 12.6 8 Noroeste 14 Noroeste 0 950.5 -0.6 26
2019-04-14 01:00:00 12.9 7 Noroeste 14 Norte 0 950.7 -0.3 23
2019-04-14 00:00:00 12.4 5 Noroeste 12 Noroeste 0 951.1 0.6 22
2019-04-13 23:00:00 14.2 5 Noroeste 18 Norte 0 951.1 1.1 18
2019-04-13 22:00:00 13.8 6 Noroeste 14 Noroeste 0 951 1 21
2019-04-13 21:00:00 15 4 Noroeste 21 Noroeste 0 950.5 0 22
2019-04-13 20:00:00 17.9 8 Oeste 26 Sudoeste 0 950 -0.6 20
2019-04-13 19:00:00 20.4 13 Oeste 30 Sudoeste 0 950 -1.3 16
2019-04-13 18:00:00 20.9 9 Oeste 30 Oeste 0 950.5 -1.6 17
2019-04-13 17:00:00 20.8 10 Oeste 31 Sudoeste 0 950.6 -1.5 18
2019-04-13 16:00:00 20 10 Oeste 27 Sudoeste 0 951.3 -1.6 18
2019-04-13 15:00:00 18.9 10 Oeste 24 Noroeste 0 952.1 -1.1 22
2019-04-13 14:00:00 17.3 9 Oeste 22 Sudoeste 0 952.1 -1.2 29
2019-04-13 13:00:00 15.7 8 Sudoeste 18 Oeste 0 952.9 -0.1 39
2019-04-13 12:00:00 13.3 7 Oeste 14 Oeste 0 953.2 0.5 46
2019-04-13 11:00:00 10.2 6 Sudoeste 13 Sudoeste 0 953.3 0.8 53
2019-04-13 10:00:00 10.1 5 Sudoeste 9 Sudoeste 0 953 1 52
2019-04-13 09:00:00 8.1 3 Noroeste 10 Noroeste 0 952.7 0.9 47
2019-04-13 08:00:00 5.7 6 Noroeste 10 Oeste 0 952.5 0.9 55
2019-04-13 07:00:00 4.4 5 Noroeste 10 Noroeste 0 952 0.4 66
2019-04-13 06:00:00 4.2 6 Noroeste 12 Noroeste 0 951.8 -0.2 70
2019-04-13 05:00:00 3.3 3 Noroeste 11 Noroeste 0 951.6 -0.5 80
2019-04-13 04:00:00 4.6 9 Noroeste 13 Noroeste 0 951.6 -0.2 74
2019-04-13 03:00:00 6 6 Oeste 12 Noroeste 0 952 0.6 68
2019-04-13 02:00:00 6 7 Noroeste 12 Noroeste 0 952.1 1 68
2019-04-13 01:00:00 7 4 Sudoeste 9 Este 0 951.8 1.3 63
2019-04-13 00:00:00 8.8 6 Oeste 10 Oeste 0 951.4 1.8 54
2019-04-12 23:00:00 9.9 7 Oeste 12 Noroeste 0 951.1 1.8 49
2019-04-12 22:00:00 10.9 6 Oeste 13 Oeste 0 950.5 1.3 45
2019-04-12 21:00:00 12.2 6 Sudoeste 19 Sudoeste 0 949.6 0.5 49
2019-04-12 20:00:00 15.2 7 Oeste 28 Oeste 0 949.3 0 40
2019-04-12 19:00:00 17.4 11 Oeste 31 Sudoeste 0 949.2 -0.6 34
2019-04-12 18:00:00 18.4 14 Oeste 38 Oeste 0 949.1 -1 31
2019-04-12 17:00:00 18.9 13 Oeste 39 Sudoeste 0 949.3 -1.1 31
2019-04-12 16:00:00 19 10 Oeste 36 Sudoeste 0 949.8 -1.1 30
2019-04-12 15:00:00 18.6 12 Oeste 31 Oeste 0 950.1 -1.2 31
2019-04-12 14:00:00 17.8 10 Oeste 26 Sudoeste 0 950.4 -0.8 32
2019-04-12 13:00:00 16.5 7 Oeste 23 Oeste 0 950.9 0 37
2019-04-12 12:00:00 14.4 6 Oeste 19 Oeste 0 951.3 0.4 49
2019-04-12 11:00:00 11.2 5 Oeste 12 Sudoeste 0 951.2 0.5 66
2019-04-12 10:00:00 8 5 Sudoeste 12 Oeste 0 950.9 0.7 77
2019-04-12 09:00:00 6.1 5 Oeste 12 Oeste 0 950.9 0.8 77
2019-04-12 08:00:00 4.5 5 Oeste 10 Noroeste 0 950.7 0.3 83
2019-04-12 07:00:00 4.2 6 Oeste 10 Sudoeste 0 950.2 -0.1 84
2019-04-12 06:00:00 4.4 5 Oeste 10 Oeste 0 950.1 -0.5 85
2019-04-12 05:00:00 4.8 7 Oeste 11 Oeste 0 950.4 -0.5 84
2019-04-12 04:00:00 5 6 Oeste 10 Oeste 0 950.3 -0.6 80
2019-04-12 03:00:00 5.5 5 Oeste 13 Oeste 0 950.6 -0.3 77
2019-04-12 02:00:00 6 4 Oeste 12 Oeste 0 950.9 0.1 73
2019-04-12 01:00:00 6.4 5 Oeste 14 Oeste 0 950.9 0.6 70
2019-04-12 00:00:00 7 5 Oeste 16 Oeste 0 950.9 1.1 69
2019-04-11 23:00:00 7.9 5 Oeste 18 Oeste 0 950.8 1.7 64
2019-04-11 22:00:00 9 6 Noroeste 21 Noroeste 0 950.3 1.5 58
2019-04-11 21:00:00 10.8 8 Noroeste 27 Norte 0 949.8 1.6 48
2019-04-11 20:00:00 13 11 Noroeste 26 Noroeste 0 949.1 1.4 42
2019-04-11 19:00:00 15.6 13 Norte 30 Noroeste 0 948.8 0.8 35
2019-04-11 18:00:00 16.6 12 Norte 35 Norte 0 948.2 -0.2 33
2019-04-11 17:00:00 17.2 15 Oeste 37 Oeste 0 947.7 -0.9 37
2019-04-11 16:00:00 17.7 12 Noroeste 39 Oeste 0 948 -1.3 34
2019-04-11 15:00:00 17.5 14 Noroeste 38 Noroeste 0 948.4 -1.4 36
2019-04-11 14:00:00 16.9 14 Oeste 33 Oeste 0 948.6 -1.1 41
2019-04-11 13:00:00 16.2 9 Oeste 23 Oeste 0 949.3 -0.3 31
2019-04-11 12:00:00 14.6 13 Noroeste 25 Noroeste 0 949.8 0.4 34
2019-04-11 11:00:00 13.2 10 Noroeste 24 Noroeste 0 949.7 0.5 38
2019-04-11 10:00:00 11.1 7 Noroeste 18 Noroeste 0 949.6 0.8 45
2019-04-11 09:00:00 7.5 4 Oeste 13 Noroeste 0 949.4 0.5 65
2019-04-11 08:00:00 4.5 6 Oeste 13 Oeste 0 949.2 0.3 73
2019-04-11 07:00:00 4.1 6 Noroeste 15 Oeste 0 948.8 0 74
2019-04-11 06:00:00 4.4 5 Oeste 11 Oeste 0 948.9 0 73
2019-04-11 05:00:00 4.7 5 Oeste 13 Oeste 0 948.9 -0.2 73
2019-04-11 04:00:00 5.3 6 Oeste 15 Noroeste 0 948.8 -0.2 71
2019-04-11 03:00:00 5.5 6 Oeste 14 Noroeste 0 948.9 0.3 71
2019-04-11 02:00:00 6.1 5 Oeste 12 Oeste 0 949.1 0.7 71
2019-04-11 01:00:00 7.4 5 Noroeste 10 Oeste 0 949 1.4 63
2019-04-11 00:00:00 7.5 4 Oeste 9 Oeste 0 948.6 2.1 63
2019-04-10 23:00:00 8.6 5 Sudoeste 15 Nordeste 0 948.4 2.8 63
2019-04-10 22:00:00 10.2 11 Nordeste 16 Nordeste 0 947.6 2.1 56
2019-04-10 21:00:00 11.1 8 Nordeste 19 Nordeste 0 946.5 1.2 63
2019-04-10 20:00:00 14.2 3 Sudoeste 17 Noroeste 0 945.6 0.4 44
2019-04-10 19:00:00 16.1 8 Oeste 26 Oeste 0 945.5 0 44
2019-04-10 18:00:00 16.1 12 Oeste 28 Oeste 0 945.3 0.1 46
2019-04-10 17:00:00 14.9 9 Oeste 28 Oeste 0 945.2 -0.2 53
2019-04-10 16:00:00 13.7 9 Oeste 29 Oeste 0 945.5 -0.3 52
2019-04-10 15:00:00 16.8 8 Noroeste 19 Noroeste 0 945.2 -0.9 48
2019-04-10 14:00:00 15.7 8 Oeste 18 Oeste 0 945.4 -0.6 42
2019-04-10 13:00:00 14 7 Oeste 18 Oeste 0 945.8 0.1 51
2019-04-10 12:00:00 12.3 7 Oeste 17 Oeste 0 946.1 0.7 62
2019-04-10 11:00:00 9.3 4 Oeste 11 Oeste 0 946 1 77
2019-04-10 10:00:00 7.9 6 Oeste 12 Oeste 0 945.7 1 79
2019-04-10 09:00:00 7.2 5 Noroeste 11 Noroeste 0 945.4 0.9 82
2019-04-10 08:00:00 4.2 2 Noroeste 9 Oeste 0 945 0.4 93
2019-04-10 07:00:00 4.1 3 Oeste 10 Noroeste 0 944.7 0.1 92
2019-04-10 06:00:00 4.4 5 Oeste 8 Sudoeste 0 944.5 -0.4 94
2019-04-10 05:00:00 4.9 6 Oeste 13 Sudoeste 0 944.6 -0.6 94
2019-04-10 04:00:00 5.5 10 Oeste 18 Sudoeste 0 944.6 -0.8 94
2019-04-10 03:00:00 6 9 Sudoeste 15 Sudoeste 0 944.9 -0.3 91
2019-04-10 02:00:00 6.5 7 Sudoeste 14 Oeste 0 945.2 0.3 90
2019-04-10 01:00:00 6.9 3 Oeste 10 Oeste 0 945.4 0.8 78
2019-04-10 00:00:00 7.3 5 Oeste 13 Noroeste 0 945.2 1.1 78
2019-04-09 23:00:00 7.6 5 Noroeste 16 Noroeste 0 944.9 1.4 76
2019-04-09 22:00:00 9 6 Oeste 21 Noroeste 0 944.6 1.6 69
2019-04-09 21:00:00 10.4 9 Oeste 19 Noroeste 0 944.1 1 68
2019-04-09 20:00:00 11.9 6 Noroeste 19 Noroeste 0 943.5 0.5 61
2019-04-09 19:00:00 13.2 8 Oeste 26 Noroeste 0 943 -0.4 53
2019-04-09 18:00:00 13.2 11 Oeste 33 Oeste 0 943.1 -1 55
2019-04-09 17:00:00 15.8 10 Oeste 27 Oeste 0 943 -1.5 40
2019-04-09 16:00:00 15.5 9 Oeste 28 Oeste 0 943.4 -1.5 43
2019-04-09 15:00:00 15.9 9 Oeste 36 Sudoeste 0 944.1 -1.2 45
2019-04-09 14:00:00 15.6 11 Oeste 27 Noroeste 0 944.5 -1 48
2019-04-09 13:00:00 14.7 10 Oeste 31 Oeste 0 944.9 -0.9 50
2019-04-09 12:00:00 13.5 10 Oeste 27 Oeste 0 945.3 -0.7 56
2019-04-09 11:00:00 12.1 11 Oeste 26 Noroeste 0 945.5 -0.1 60
2019-04-09 10:00:00 10.1 8 Oeste 21 Noroeste 0 945.8 0.4 73
2019-04-09 09:00:00 7.5 5 Noroeste 13 Oeste 0 946 0.5 87
2019-04-09 08:00:00 6.6 6 Oeste 16 Oeste 0 945.6 0 86
2019-04-09 07:00:00 7.2 6 Noroeste 14 Noroeste 0 945.4 -0.1 83
2019-04-09 06:00:00 7.4 4 Oeste 12 Oeste 0 945.5 -0.2 84
2019-04-09 05:00:00 7.8 5 Noroeste 11 Noroeste 0 945.6 0.1 84
2019-04-09 04:00:00 8.3 4 Noroeste 12 Oeste 0 945.5 -0.5 83
2019-04-09 03:00:00 8.6 5 Sudoeste 19 Oeste 0 945.7 -0.3 83
2019-04-09 02:00:00 10.1 5 Noroeste 18 Norte 0 945.5 -0.4 65
2019-04-09 01:00:00 9 4 Noroeste 12 Oeste 0 946 0.1 84
2019-04-09 00:00:00 9 4 Oeste 10 Oeste 0 946 0.6 83
2019-04-08 23:00:00 9.9 4 Sudoeste 18 Sudoeste 0 945.9 0.9 81
2019-04-08 22:00:00 11.2 3 Sudoeste 12 Oeste 0 945.9 0.9 73
2019-04-08 21:00:00 11.8 4 Sudoeste 15 Sur 0 945.4 0.4 67
2019-04-08 20:00:00 14.5 4 Oeste 16 Oeste 0 945 -0.4 56
2019-04-08 19:00:00 16 6 Oeste 19 Noroeste 0 945 -1 50
2019-04-08 18:00:00 16.6 8 Oeste 23 Noroeste 0 945 -1.6 48
2019-04-08 17:00:00 16.5 6 Oeste 20 Oeste 0 945.4 -1.7 55
2019-04-08 16:00:00 15.2 8 Noroeste 19 Noroeste 0 946 -1.4 60
2019-04-08 15:00:00 14.4 8 Oeste 19 Sudoeste 0 946.6 -0.9 62
2019-04-08 14:00:00 12.9 8 Noroeste 17 Noroeste 0 947.1 -0.3 68
2019-04-08 13:00:00 11.9 6 Oeste 14 Sudoeste 0 947.4 0 71
2019-04-08 12:00:00 9.7 5 Sudoeste 12 Sudoeste 0.2 947.5 0.1 81
2019-04-08 11:00:00 9.1 5 Oeste 10 Oeste 0 947.4 0.5 82
2019-04-08 10:00:00 8.2 3 Noroeste 7 Este 0 947.4 0.5 82
2019-04-08 09:00:00 7.4 0 Calma 7 Este 0 947.4 0.4 86
2019-04-08 08:00:00 6.7 5 Este 7 Este 0 946.9 -0.2 83
2019-04-08 07:00:00 6.8 4 Este 8 Este 0 946.9 -0.1 75
2019-04-08 06:00:00 7.3 0 Calma 18 Noroeste 0 947 -0.5 76
2019-04-08 05:00:00 6.4 4 Nordeste 8 Este 0 947.1 -0.2 71
2019-04-08 04:00:00 6 3 Nordeste 7 Sudeste 0 947 -0.3 72
2019-04-08 03:00:00 6 8 Sudeste 15 Sur 0 947.5 0.1 73
2019-04-08 02:00:00 6.6 6 Este 9 Este 0 947.3 0 68
2019-04-08 01:00:00 7.1 4 Nordeste 6 Nordeste 0 947.3 0.1 66
2019-04-08 00:00:00 6.9 0 Calma 5 Norte 0 947.4 0.9 64
2019-04-07 23:00:00 7.3 2 Norte 8 Noroeste 0 947.3 1.7 64
2019-04-07 22:00:00 8.4 3 Noroeste 9 Noroeste 0 947.2 2.2 61
2019-04-07 21:00:00 9.7 5 Noroeste 22 Norte 0 946.5 2.2 58
2019-04-07 20:00:00 11.8 9 Oeste 27 Oeste 0 945.6 1.8 49
2019-04-07 19:00:00 13.2 11 Oeste 30 Noroeste 0 945 1.5 45
2019-04-07 18:00:00 14.7 11 Oeste 31 Oeste 0 944.3 0.9 47
2019-04-07 17:00:00 15.1 10 Oeste 28 Oeste 0 943.8 0.6 46
2019-04-07 16:00:00 14.5 11 Oeste 33 Oeste 0 943.5 0.3 46
2019-04-07 15:00:00 13.7 12 Noroeste 28 Oeste 0 943.4 0.8 49
2019-04-07 14:00:00 13.4 10 Oeste 31 Noroeste 0 943.2 1 51
2019-04-07 13:00:00 11.8 10 Noroeste 36 Oeste 0 943.2 1.6 55
2019-04-07 12:00:00 10.8 13 Oeste 30 Oeste 0 942.6 1.6 58
2019-04-07 11:00:00 9.3 12 Noroeste 32 Oeste 0 942.2 1.9 67
2019-04-07 10:00:00 7.5 10 Oeste 34 Noroeste 0 941.6 1.9 74
2019-04-07 09:00:00 5.3 6 Noroeste 17 Oeste 0 941 1.8 92
2019-04-07 08:00:00 4.1 7 Oeste 14 Noroeste 0 940.3 1.5 94
2019-04-07 07:00:00 4.8 5 Oeste 13 Noroeste 0 939.7 0.9 94
2019-04-07 06:00:00 4.8 4 Oeste 9 Noroeste 0 939.2 0.6 95
2019-04-07 05:00:00 5 4 Oeste 7 Oeste 0 938.8 0.2 92
2019-04-07 04:00:00 5.3 2 Nordeste 8 Este 0 938.8 0.1 90
2019-04-07 03:00:00 5.1 6 Este 12 Este 0 938.6 -0.1 94
2019-04-07 02:00:00 5.1 7 Este 12 Este 0 938.6 -0.1 93
2019-04-07 01:00:00 5 9 Este 14 Sudeste 0 938.7 0.4 93
2019-04-07 00:00:00 5.2 8 Este 13 Este 0 938.7 0.7 94
2019-04-06 23:00:00 5.3 8 Este 12 Este 0.2 938.7 1.3 92
2019-04-06 22:00:00 5.4 7 Este 13 Este 0 938.3 1.9 87
2019-04-06 21:00:00 6.2 6 Este 17 Sudeste 0 938 1.9 85
2019-04-06 20:00:00 8.1 12 Sur 28 Sur 0.2 937.4 1 72
2019-04-06 19:00:00 9.8 8 Este 15 Este 0 936.4 0.2 63
2019-04-06 18:00:00 10 5 Nordeste 18 Nordeste 0 936.1 -0.4 62
2019-04-06 17:00:00 8.5 12 Norte 26 Oeste 0 936.4 -0.3 64
2019-04-06 16:00:00 11.2 6 Sudoeste 17 Sudoeste 0 936.2 -0.6 58
2019-04-06 15:00:00 9.5 9 Oeste 24 Sur 0.2 936.5 -0.2 62
2019-04-06 14:00:00 10.1 6 Oeste 19 Oeste 0 936.7 0.6 58
2019-04-06 13:00:00 9.3 6 Oeste 20 Noroeste 0 936.8 1.2 72
2019-04-06 12:00:00 7.5 8 Oeste 19 Oeste 0 936.7 1.6 86
2019-04-06 11:00:00 5.5 6 Oeste 18 Oeste 0 936.1 1.5 93
2019-04-06 10:00:00 4.5 4 Oeste 18 Oeste 0 935.6 1.5 97
2019-04-06 09:00:00 3.9 6 Oeste 17 Oeste 0 935.1 1.1 98
2019-04-06 08:00:00 3.8 5 Oeste 16 Sudoeste 0 934.6 0.7 98
2019-04-06 07:00:00 3.8 5 Oeste 15 Oeste 0.4 934.1 0.2 98
2019-04-06 06:00:00 3.7 5 Oeste 17 Oeste 0.4 934 0.4 99
2019-04-06 05:00:00 3.6 5 Oeste 17 Oeste 0.4 933.9 0 98
2019-04-06 04:00:00 3.6 8 Oeste 32 Noroeste 0.2 933.9 0.4 96
2019-04-06 03:00:00 3.6 8 Noroeste 23 Oeste 2.4 933.6 -0.1 96
2019-04-06 02:00:00 3.9 8 Noroeste 24 Oeste 2.2 933.9 0.5 96
2019-04-06 01:00:00 5.4 6 Oeste 19 Oeste 1.8 933.5 -0.3 95
2019-04-06 00:00:00 5.7 6 Sudeste 21 Este 1 933.7 0.2 91
2019-04-05 23:00:00 5.7 13 Este 23 Este 0 933.4 -0.6 88
2019-04-05 22:00:00 6 13 Este 25 Nordeste 0 933.8 -0.5 90
2019-04-05 21:00:00 6.1 12 Este 21 Este 0 933.5 -1.3 95
2019-04-05 20:00:00 6.2 8 Nordeste 17 Nordeste 0.6 934 -0.5 91
2019-04-05 19:00:00 6.5 5 Norte 17 Norte 1.6 934.3 -0.5 89
2019-04-05 18:00:00 7.4 7 Norte 18 Nordeste 2.4 934.8 -0.8 88
2019-04-05 17:00:00 9 13 Nordeste 22 Nordeste 0 934.5 -1.5 74
2019-04-05 16:00:00 11 8 Este 18 Nordeste 0 934.8 -1.6 64
2019-04-05 15:00:00 11.1 9 Sudeste 17 Sudeste 0 935.6 -1.2 63
2019-04-05 14:00:00 9.1 6 Este 21 Este 0 936 -0.7 73
2019-04-05 13:00:00 8.6 15 Este 28 Este 0 936.4 -0.4 74
2019-04-05 12:00:00 9 15 Este 27 Este 0 936.8 -0.1 77
2019-04-05 11:00:00 6.4 16 Este 28 Este 0 936.7 0 86
2019-04-05 10:00:00 5 14 Este 26 Este 0.4 936.8 0.4 91
2019-04-05 09:00:00 4.8 9 Este 19 Este 0.6 936.9 0.7 85
2019-04-05 08:00:00 5.2 10 Este 24 Este 0.2 936.7 0 75
2019-04-05 07:00:00 6.3 14 Este 28 Sudeste 0 936.4 0.2 61
2019-04-05 06:00:00 6.9 21 Este 35 Este 0 936.2 -0.5 51
2019-04-05 05:00:00 6.6 18 Este 32 Este 0 936.7 -0.3 53
2019-04-05 04:00:00 6.4 19 Este 34 Este 0 936.2 -1.4 59
2019-04-05 03:00:00 6.1 17 Este 27 Este 0 936.7 -1.1 56
2019-04-05 02:00:00 6 15 Este 27 Este 0 937 -0.5 51
2019-04-05 01:00:00 5.8 12 Este 19 Este 0 937.6 0.1 49
2019-04-05 00:00:00 5.6 12 Este 16 Sudeste 0 937.8 0.5 52
2019-04-04 23:00:00 6.5 11 Este 15 Este 0 937.5 -0.1 49
2019-04-04 22:00:00 6.7 10 Este 14 Este 0 937.5 -0.1 47
2019-04-04 21:00:00 7.8 7 Este 9 Este 0 937.3 -0.6 44
2019-04-04 20:00:00 9.8 2 Sudoeste 8 Sudoeste 0 937.6 -0.3 38
2019-04-04 19:00:00 11.4 6 Oeste 26 Oeste 0 937.6 -0.2 31
2019-04-04 18:00:00 12 11 Oeste 27 Sudoeste 0 937.9 -0.5 32
2019-04-04 17:00:00 12.4 10 Oeste 28 Sudoeste 0 937.9 -0.9 32
2019-04-04 16:00:00 12.3 9 Oeste 30 Oeste 0 937.8 -1.2 36
2019-04-04 15:00:00 11.6 12 Noroeste 28 Noroeste 0 938.4 -0.7 39
2019-04-04 14:00:00 10.8 11 Oeste 31 Oeste 0 938.8 -0.2 43
2019-04-04 13:00:00 9.5 10 Oeste 30 Noroeste 0 939 0.2 41
2019-04-04 12:00:00 8 11 Oeste 36 Oeste 0 939.1 0.6 46
2019-04-04 11:00:00 6.8 12 Noroeste 42 Oeste 0 939 0.8 52
2019-04-04 10:00:00 5.1 12 Oeste 30 Oeste 0 938.8 1.3 60
2019-04-04 09:00:00 2.4 5 Noroeste 15 Norte 0 938.5 1 71
2019-04-04 08:00:00 -0.4 5 Oeste 20 Oeste 0 938.2 0.9 85
2019-04-04 07:00:00 -0.5 7 Oeste 23 Oeste 0 937.5 -0.2 83
2019-04-04 06:00:00 0 5 Oeste 18 Oeste 0 937.5 -0.4 79
2019-04-04 05:00:00 0.6 8 Oeste 22 Oeste 0 937.3 -1.3 74
2019-04-04 04:00:00 0.4 10 Oeste 23 Oeste 0 937.7 -1.3 75
2019-04-04 03:00:00 0.4 7 Oeste 21 Oeste 0 937.9 -1.4 74
2019-04-04 02:00:00 0.9 7 Oeste 21 Oeste 0 938.6 -0.9 72
2019-04-04 01:00:00 1.6 6 Oeste 19 Oeste 0 939 -0.3 67
2019-04-04 00:00:00 3 9 Noroeste 23 Sudoeste 0 939.3 0.7 61
2019-04-03 23:00:00 3.6 7 Oeste 20 Sudoeste 0 939.5 1 62
2019-04-03 22:00:00 4.3 6 Oeste 22 Oeste 0 939.3 1.2 62
2019-04-03 21:00:00 5.7 7 Oeste 24 Oeste 0 938.6 0.8 55
2019-04-03 20:00:00 7.2 11 Oeste 38 Noroeste 0 938.5 0.3 53
2019-04-03 19:00:00 8.7 9 Oeste 28 Noroeste 0 938.1 -0.8 53
2019-04-03 18:00:00 11.4 13 Oeste 37 Oeste 0 937.8 -2 46
2019-04-03 17:00:00 11.4 12 Oeste 32 Oeste 0 938.2 -2.2 45
2019-04-03 16:00:00 9.8 9 Oeste 25 Oeste 0 938.9 -1.9 54
2019-04-03 15:00:00 8.8 9 Oeste 28 Oeste 0 939.8 -1.6 64
2019-04-03 14:00:00 8.7 11 Oeste 28 Oeste 0 940.4 -1.5 59
2019-04-03 13:00:00 9.5 10 Oeste 25 Oeste 0 940.8 -1.2 63
2019-04-03 12:00:00 8.8 9 Oeste 21 Noroeste 0 941.4 -0.8 74
2019-04-03 11:00:00 8.3 5 Oeste 16 Oeste 0 941.9 -0.3 80
2019-04-03 10:00:00 8.6 5 Oeste 15 Oeste 0 942 -0.6 81
2019-04-03 09:00:00 6.9 3 Sudoeste 9 Oeste 0 942.2 -0.8 87
2019-04-03 08:00:00 6.6 3 Oeste 10 Sudoeste 0 942.2 -1 86
2019-04-03 07:00:00 6.8 3 Oeste 9 Sudoeste 0 942.6 -1.4 81
2019-04-03 06:00:00 7.5 5 Oeste 13 Oeste 0 943 -2.1 80
2019-04-03 05:00:00 8.1 3 Oeste 10 Sudoeste 0 943.2 -2.6 74
2019-04-03 04:00:00 8.7 5 Noroeste 10 Noroeste 0 944 -2.4 67
2019-04-03 03:00:00 8.9 4 Oeste 12 Noroeste 0 945.1 -1.6 66
2019-04-03 02:00:00 9.5 5 Oeste 10 Oeste 0 945.8 -0.9 63
2019-04-03 01:00:00 9.7 5 Sudoeste 13 Oeste 0 946.4 -0.5 62
2019-04-03 00:00:00 10.8 5 Sudoeste 9 Oeste 0 946.7 0.3 55
2019-04-02 23:00:00 11.3 6 Noroeste 12 Noroeste 0 946.7 0.5 51
2019-04-02 22:00:00 11.4 4 Noroeste 15 Noroeste 0 946.9 0.9 51
2019-04-02 21:00:00 12.4 4 Oeste 20 Oeste 0 946.4 0.3 52
2019-04-02 20:00:00 14.8 6 Oeste 26 Oeste 0 946.2 -0.5 46
2019-04-02 19:00:00 17.1 9 Oeste 34 Sudoeste 0 946 -1.2 40
2019-04-02 18:00:00 18.1 11 Oeste 30 Sudoeste 0 946.1 -1.9 42
2019-04-02 17:00:00 18.3 12 Oeste 27 Oeste 0 946.7 -2 45
2019-04-02 16:00:00 18.1 13 Oeste 30 Oeste 0 947.2 -2.3 45
2019-04-02 15:00:00 17.2 14 Oeste 33 Sudoeste 0 948 -2.1 55
2019-04-02 14:00:00 15.7 10 Oeste 30 Oeste 0 948.7 -1.5 62
2019-04-02 13:00:00 15.6 11 Sudoeste 22 Sudoeste 0 949.5 -0.6 66
2019-04-02 12:00:00 15 6 Oeste 18 Oeste 0 950.1 0.4 72
2019-04-02 11:00:00 11.7 6 Oeste 13 Sudoeste 0 950.2 0.5 87
2019-04-02 10:00:00 11 6 Oeste 11 Oeste 0 950.1 0.6 85
2019-04-02 09:00:00 8.8 3 Noroeste 7 Noroeste 0 949.7 0.3 92
2019-04-02 08:00:00 8.4 3 Noroeste 5 Noroeste 0 949.7 0 95
2019-04-02 07:00:00 8.3 2 Oeste 4 Nordeste 0 949.5 -0.4 93
2019-04-02 06:00:00 8.8 3 Nordeste 4 Norte 0 949.4 -0.9 93
2019-04-02 05:00:00 9.1 2 Nordeste 5 Este 0 949.7 -0.8 92
2019-04-02 04:00:00 9.6 3 Sudeste 5 Sudeste 0 949.9 -0.8 91
2019-04-02 03:00:00 9.9 0 Calma 4 Nordeste 0 950.3 -0.4 93
2019-04-02 02:00:00 9.9 3 Este 4 Este 0 950.5 -0.3 92
2019-04-02 01:00:00 10.3 0 Calma 4 Nordeste 0 950.7 0 89
2019-04-02 00:00:00 10.6 0 Calma 7 Nordeste 0 950.7 0.6 88
2019-04-01 23:00:00 10.5 3 Nordeste 5 Norte 0 950.8 1.2 88
2019-04-01 22:00:00 10.5 2 Noroeste 4 Norte 0 950.7 1.3 86
2019-04-01 21:00:00 11.2 3 Sudoeste 8 Sur 0 950.1 0.6 83
2019-04-01 20:00:00 12.5 3 Sur 8 Sur 0 949.6 -0.1 80
2019-04-01 19:00:00 13.1 5 Sur 10 Sur 0 949.4 -0.5 76
2019-04-01 18:00:00 13.8 3 Sur 10 Sudeste 0 949.5 -0.9 70
2019-04-01 17:00:00 13.4 4 Sudeste 13 Sudeste 0 949.7 -1.2 75
2019-04-01 16:00:00 13.2 8 Sudeste 14 Este 0 949.9 -1.3 77
2019-04-01 15:00:00 11.7 5 Sudeste 13 Este 0.2 950.4 -1 84
2019-04-01 14:00:00 10.5 6 Este 12 Este 0.2 950.9 -0.3 91
2019-04-01 13:00:00 9 6 Nordeste 9 Nordeste 1 951.2 0.5 89
2019-04-01 12:00:00 8.2 3 Noroeste 6 Oeste 0.8 951.4 1 90
2019-04-01 11:00:00 8.3 3 Oeste 7 Oeste 0.2 951.2 1.2 86
2019-04-01 10:00:00 8.2 0 Calma 5 Sudeste 0.2 950.7 1 88
2019-04-01 09:00:00 7.7 4 Sudeste 6 Sur 0 950.4 0.8 87
2019-04-01 08:00:00 7.8 4 Este 5 Este 0.4 950 0.2 90
2019-04-01 07:00:00 7.9 4 Este 9 Este 0.2 949.7 -0.2 90
2019-04-01 06:00:00 8 5 Norte 9 Norte 0.2 949.6 -0.6 88
2019-04-01 05:00:00 7.8 5 Noroeste 9 Noroeste 0 949.8 -0.6 87
2019-04-01 04:00:00 7.6 6 Noroeste 12 Noroeste 0 949.9 -0.6 89
2019-04-01 03:00:00 7.4 6 Noroeste 13 Noroeste 0.2 950.2 -0.1 90
2019-04-01 02:00:00 7.9 6 Oeste 11 Oeste 0 950.4 -0.1 85
2019-04-01 01:00:00 8.9 4 Oeste 10 Noroeste 0 950.5 0.2 77
2019-04-01 00:00:00 9.2 6 Noroeste 9 Noroeste 0 950.3 0.1 73
2019-03-31 23:00:00 9.2 4 Noroeste 9 Noroeste 0 950.5 0.4 72
2019-03-31 22:00:00 9.5 2 Norte 6 Nordeste 0 950.3 0.2 69
2019-03-31 21:00:00 9.8 2 Norte 5 Norte 0 950.2 0.2 69
2019-03-31 20:00:00 10.6 0 Calma 8 Sur 0 950.1 -0.1 65
2019-03-31 19:00:00 11.3 4 Sudoeste 13 Sudoeste 0 950.1 -0.6 64
2019-03-31 18:00:00 11.9 6 Sur 15 Sur 0 950 -1.4 59
2019-03-31 17:00:00 12.7 6 Sur 14 Sudeste 0 950.2 -1.7 60
2019-03-31 16:00:00 12.8 6 Sudeste 17 Sudeste 0 950.7 -1.4 57
2019-03-31 15:00:00 12.4 12 Sudeste 21 Sudeste 0 951.4 -1.1 59
2019-03-31 14:00:00 12.4 10 Sudeste 21 Sur 0 951.9 -0.8 60
2019-03-31 13:00:00 11.6 12 Sudeste 21 Sudeste 0 952.1 -0.3 59
2019-03-31 12:00:00 11.2 10 Este 20 Este 0 952.5 0.3 65
2019-03-31 11:00:00 9.3 13 Sudeste 19 Este 0 952.7 0.9 74
2019-03-31 10:00:00 7.2 6 Este 11 Este 0 952.4 0.7 85
2019-03-31 09:00:00 6 4 Sudeste 8 Este 0 952.2 0.3 91
2019-03-31 08:00:00 4 6 Este 9 Este 0 951.8 -1.1 91
2019-03-31 07:00:00 3.7 6 Este 11 Sudeste 0 951.7 -1.8 91
2019-03-31 06:00:00 4 7 Este 9 Este 0 951.9 -2.1 88
2019-03-31 05:00:00 5 3 Nordeste 12 Nordeste 0 952.9 -1.5 86
2019-03-31 03:00:00 5.5 10 Sudeste 17 Sudeste 0 954 -1.5 88
2019-03-31 01:00:00 6 12 Este 19 Este 0 954.4 -0.7 86
2019-03-31 00:00:00 6.5 13 Este 20 Este 0 955.1 0.7 84
2019-03-30 23:00:00 6.7 13 Este 20 Este 0 955.5 1.8 76
2019-03-30 22:00:00 7.8 12 Este 19 Este 0 955.1 1.6 61
2019-03-30 21:00:00 9.5 8 Este 11 Este 0 954.4 0.9 47
2019-03-30 20:00:00 10.5 7 Este 10 Sudeste 0 953.7 0 44
2019-03-30 19:00:00 13.5 7 Sudeste 17 Sudeste 0 953.5 -0.8 37
2019-03-30 18:00:00 15.7 11 Sudeste 19 Sudeste 0 953.5 -1.6 33
2019-03-30 17:00:00 16.7 9 Sudeste 21 Sur 0 953.7 -2.2 35
2019-03-30 16:00:00 16.6 9 Sudeste 21 Sudeste 0 954.3 -2.3 35
2019-03-30 15:00:00 16.5 9 Sur 22 Sudeste 0 955.1 -2.2 34
2019-03-30 14:00:00 15.6 11 Sudeste 23 Sur 0 955.9 -2 38
2019-03-30 13:00:00 14.9 9 Sur 23 Sudeste 0 956.6 -1.6 42
2019-03-30 12:00:00 13.4 9 Este 21 Sudeste 0 957.3 -0.9 45
2019-03-30 11:00:00 12.5 10 Sudeste 19 Sur 0 957.9 0 50
2019-03-30 10:00:00 11 12 Sudeste 21 Sudeste 0 958.2 0.5 55
2019-03-30 09:00:00 8.7 11 Sudeste 18 Sudeste 0 958.2 0.4 65
2019-03-30 08:00:00 5.8 13 Este 17 Sudeste 0 957.9 -0.1 69
2019-03-30 07:00:00 3.4 12 Este 16 Este 0 957.7 -0.8 74
2019-03-30 06:00:00 3.8 13 Sudeste 15 Sudeste 0 957.8 -1 72
2019-03-30 05:00:00 4.1 10 Este 11 Este 0 958 -1.2 72
2019-03-30 04:00:00 4.4 8 Este 14 Este 0 958.5 -1.1 70
2019-03-30 03:00:00 5.1 11 Este 17 Este 0 958.8 -1 68
2019-03-30 02:00:00 5.4 11 Este 17 Este 0 959.2 -0.6 67
2019-03-30 01:00:00 5.8 9 Este 19 Este 0 959.6 0 67
2019-03-30 00:00:00 6.9 12 Este 19 Este 0 959.8 0.6 62
2019-03-29 23:00:00 7.1 10 Este 16 Este 0 959.8 1.3 61
2019-03-29 22:00:00 7.7 9 Este 15 Este 0 959.6 1.5 58
2019-03-29 21:00:00 9.2 11 Este 15 Sudeste 0 959.2 1.4 55
2019-03-29 20:00:00 11.5 9 Sudeste 17 Este 0 958.5 0.4 48
2019-03-29 19:00:00 13.8 11 Sudeste 26 Sudeste 0 958.1 -0.5 39
2019-03-29 18:00:00 15.8 14 Sudeste 28 Sudeste 0 957.8 -1.7 34
2019-03-29 17:00:00 16.8 17 Sudeste 28 Sudeste 0 958.1 -2 31
2019-03-29 16:00:00 17.5 15 Sudeste 28 Este 0 958.6 -2.1 30
2019-03-29 15:00:00 17.4 12 Sudeste 28 Sur 0 959.5 -1.7 30
2019-03-29 14:00:00 16.7 10 Sur 28 Sudeste 0 960.1 -1.4 30
2019-03-29 13:00:00 16.2 9 Sudeste 28 Sudeste 0 960.7 -0.8 31
2019-03-29 12:00:00 15.7 16 Sudeste 27 Sudeste 0 961.2 -0.2 33
2019-03-29 11:00:00 14 18 Sudeste 30 Sudeste 0 961.5 0.3 39
2019-03-29 10:00:00 12.1 19 Sudeste 28 Este 0 961.5 0.6 42
2019-03-29 09:00:00 10.2 15 Sudeste 22 Sudeste 0 961.4 0.7 49
2019-03-29 08:00:00 7.1 12 Este 17 Este 0 961.2 0.7 54
2019-03-29 07:00:00 5.6 12 Este 19 Este 0 960.9 0.3 56
2019-03-29 06:00:00 5.4 13 Este 19 Este 0 960.7 -0.2 57
2019-03-29 05:00:00 4.8 13 Este 20 Este 0 960.5 -0.6 59
2019-03-29 04:00:00 5.4 12 Este 20 Este 0 960.6 -0.5 56
2019-03-29 03:00:00 6 13 Este 21 Este 0 960.9 0 54
2019-03-29 02:00:00 6.2 12 Este 19 Este 0 961.1 0.4 55
2019-03-29 01:00:00 7.1 13 Este 21 Este 0 961.1 0.7 52
2019-03-29 00:00:00 7.6 14 Este 23 Este 0 960.9 1 54
2019-03-28 23:00:00 8 14 Este 21 Este 0 960.7 1.3 58
2019-03-28 22:00:00 9.6 10 Este 14 Este 0 960.4 1.2 54
2019-03-28 21:00:00 10.4 11 Este 15 Sudeste 0 959.9 1 51
2019-03-28 20:00:00 12.1 9 Sudeste 13 Sudeste 0 959.4 0.4 47
2019-03-28 19:00:00 14.7 6 Sudeste 10 Sur 0 959.2 -0.2 43
2019-03-28 18:00:00 16.8 5 Sudoeste 12 Sudoeste 0 958.9 -1 38
2019-03-28 17:00:00 16.7 5 Sur 17 Sudoeste 0 959 -1.7 38
2019-03-28 16:00:00 16.8 4 Sudoeste 16 Sudoeste 0 959.4 -1.8 39
2019-03-28 15:00:00 16.3 7 Sudoeste 15 Sur 0 959.9 -1.7 41
2019-03-28 14:00:00 15.6 7 Oeste 17 Sudoeste 0 960.7 -1.4 45
2019-03-28 13:00:00 15.2 8 Sur 21 Este 0 961.2 -1 45
2019-03-28 12:00:00 14 6 Sur 14 Sur 0 961.6 -0.6 46
2019-03-28 11:00:00 12.7 5 Sudeste 13 Sur 0 962.1 0.2 51
2019-03-28 10:00:00 10.9 5 Este 10 Sudeste 0 962.2 0.6 61
2019-03-28 09:00:00 8.7 5 Nordeste 10 Nordeste 0 962.2 1 66
2019-03-28 08:00:00 6.2 4 Nordeste 8 Este 0 961.9 1 68
2019-03-28 07:00:00 3.5 5 Este 9 Este 0 961.6 0.8 73
2019-03-28 06:00:00 3.9 6 Este 10 Este 0 961.2 0.5 73
2019-03-28 05:00:00 4.4 8 Este 12 Este 0 960.9 0.5 70
2019-03-28 04:00:00 5.2 7 Este 18 Este 0 960.8 0.5 68
2019-03-28 03:00:00 6.3 12 Este 23 Este 0 960.7 1 64
2019-03-28 02:00:00 6.9 17 Este 26 Este 0 960.4 1.3 62
2019-03-28 01:00:00 7.4 15 Este 24 Este 0 960.3 1.5 60
2019-03-28 00:00:00 8.4 15 Este 25 Este 0 959.7 1.5 53
2019-03-27 23:00:00 9.4 12 Este 19 Este 0 959.1 1.7 47
2019-03-27 22:00:00 9.9 9 Este 14 Este 0 958.8 1.8 43
2019-03-27 21:00:00 10.4 6 Este 9 Este 0 958.2 1.6 39
2019-03-27 20:00:00 12.5 5 Sudeste 8 Sudeste 0 957.4 0.8 31
2019-03-27 19:00:00 15.7 3 Sudoeste 11 Sudoeste 0 957 0.1 29
2019-03-27 18:00:00 17.9 5 Sudoeste 17 Sudoeste 0 956.6 -0.7 25
2019-03-27 17:00:00 18.5 5 Sudoeste 19 Oeste 0 956.6 -1.1 28
2019-03-27 16:00:00 18.2 8 Oeste 23 Oeste 0 956.9 -1.4 26
2019-03-27 15:00:00 17.8 7 Oeste 25 Sudoeste 0 957.3 -1.5 27
2019-03-27 14:00:00 16.7 9 Oeste 24 Sudoeste 0 957.7 -1.4 33
2019-03-27 13:00:00 15.3 8 Oeste 24 Oeste 0 958.3 -0.8 42
2019-03-27 12:00:00 13.7 7 Oeste 18 Oeste 0 958.8 -0.1 48
2019-03-27 11:00:00 10.9 9 Oeste 17 Sudoeste 0 959.1 0.4 58
2019-03-27 10:00:00 9.3 5 Oeste 10 Noroeste 0 959.1 0.8 57
2019-03-27 09:00:00 8.3 4 Sudoeste 9 Oeste 0 958.9 0.6 60
2019-03-27 08:00:00 7.2 3 Este 12 Nordeste 0 958.7 0.7 62
2019-03-27 07:00:00 4.6 9 Nordeste 12 Nordeste 0 958.3 0.4 74
2019-03-27 06:00:00 4.3 6 Nordeste 12 Nordeste 0 958.3 0.6 74
2019-03-27 05:00:00 4.5 8 Nordeste 15 Este 0 958 0 75
2019-03-27 04:00:00 4.1 7 Este 17 Este 0 957.9 0 79
2019-03-27 03:00:00 4.9 12 Este 19 Este 0 957.7 0.2 78
2019-03-27 02:00:00 5.1 10 Este 21 Este 0 958 1.1 79
2019-03-27 01:00:00 5.7 14 Este 25 Este 0 957.9 2.1 77
2019-03-27 00:00:00 6.6 18 Este 35 Este 0 957.5 2.4 74